createdAt,value
2019-05-12T00:02:14.901Z,55.64
2019-05-12T00:04:41.980Z,55.59
2019-05-12T00:07:09.043Z,55.65
2019-05-12T00:09:38.683Z,55.76
2019-05-12T00:12:05.112Z,55.77
2019-05-12T00:14:32.242Z,55.76
2019-05-12T00:16:59.366Z,55.79
2019-05-12T00:19:28.462Z,55.76
2019-05-12T00:21:55.420Z,55.87
2019-05-12T00:24:22.411Z,55.88
2019-05-12T00:26:51.410Z,55.99
2019-05-12T00:29:18.677Z,55.98
2019-05-12T00:31:47.816Z,55.95
2019-05-12T00:34:14.738Z,55.93
2019-05-12T00:36:41.834Z,55.99
2019-05-12T00:39:08.990Z,56.11
2019-05-12T00:41:38.650Z,56.17
2019-05-12T00:44:05.243Z,56.20
2019-05-12T00:46:32.363Z,56.20
2019-05-12T00:49:00.597Z,56.25
2019-05-12T00:51:28.829Z,56.40
2019-05-12T00:53:57.997Z,56.35
2019-05-12T00:56:25.208Z,56.43
2019-05-12T00:58:52.266Z,56.52
2019-05-12T01:01:19.338Z,56.36
2019-05-12T01:03:48.371Z,56.44
2019-05-12T01:06:17.692Z,56.59
2019-05-12T01:08:44.554Z,56.64
2019-05-12T01:11:11.658Z,56.62
2019-05-12T01:13:38.745Z,56.60
2019-05-12T01:16:07.967Z,56.64
2019-05-12T01:18:34.855Z,56.65
2019-05-12T01:21:01.934Z,56.64
2019-05-12T01:23:29.016Z,56.70
2019-05-12T01:25:58.509Z,56.77
2019-05-12T01:28:27.813Z,56.86
2019-05-12T01:30:58.194Z,56.81
2019-05-12T01:33:27.528Z,56.89
2019-05-12T01:35:54.420Z,56.87
2019-05-12T01:38:21.508Z,56.91
2019-05-12T01:40:48.586Z,56.94
2019-05-12T01:43:15.710Z,56.98
2019-05-12T01:45:42.791Z,57.00
2019-05-12T01:48:09.865Z,57.16
2019-05-12T01:50:38.618Z,57.25
2019-05-12T01:53:08.219Z,57.34
2019-05-12T01:55:34.935Z,57.34
2019-05-12T01:58:02.019Z,57.35
2019-05-12T02:00:30.394Z,57.43
2019-05-12T02:02:58.574Z,57.50
2019-05-12T02:05:28.062Z,57.57
2019-05-12T02:07:58.118Z,57.75
2019-05-12T02:10:24.782Z,57.77
2019-05-12T02:12:51.886Z,57.79
2019-05-12T02:15:19.376Z,57.78
2019-05-12T02:17:48.115Z,57.80
2019-05-12T02:20:17.940Z,57.83
2019-05-12T02:22:45.082Z,57.81
2019-05-12T02:25:13.671Z,57.85
2019-05-12T02:27:40.751Z,57.95
2019-05-12T02:30:10.078Z,58.13
2019-05-12T02:32:48.093Z,58.28
2019-05-12T02:35:06.669Z,58.32
2019-05-12T02:37:35.813Z,58.37
2019-05-12T02:40:04.739Z,58.53
2019-05-12T02:42:34.858Z,58.61
2019-05-12T02:45:01.165Z,58.73
2019-05-12T02:47:28.253Z,58.74
2019-05-12T02:49:55.336Z,58.91
2019-05-12T02:52:25.080Z,59.07
2019-05-12T02:54:56.976Z,59.10
2019-05-12T02:57:21.255Z,59.14
2019-05-12T02:59:49.033Z,59.22
2019-05-12T03:02:16.696Z,59.31
2019-05-12T03:04:44.314Z,59.36
2019-05-12T03:07:15.183Z,59.41
2019-05-12T03:09:40.879Z,59.50
2019-05-12T03:12:08.193Z,59.55
2019-05-12T03:14:40.240Z,59.62
2019-05-12T03:17:04.786Z,59.65
2019-05-12T03:19:34.568Z,59.73
2019-05-12T03:22:01.009Z,59.80
2019-05-12T03:24:28.091Z,59.86
2019-05-12T03:26:55.453Z,59.94
2019-05-12T03:29:25.123Z,59.99
2019-05-12T03:31:56.669Z,60.09
2019-05-12T03:34:21.113Z,60.13
2019-05-12T03:36:51.300Z,60.35
2019-05-12T03:39:17.303Z,60.46
2019-05-12T03:41:44.786Z,60.57
2019-05-12T03:44:14.804Z,60.62
2019-05-12T03:46:40.956Z,60.69
2019-05-12T03:49:08.075Z,60.72
2019-05-12T03:51:35.392Z,60.79
2019-05-12T03:54:04.709Z,60.73
2019-05-12T03:56:34.499Z,60.73
2019-05-12T03:59:00.543Z,60.71
2019-05-12T04:01:27.651Z,60.83
2019-05-12T04:03:54.726Z,61.03
2019-05-12T04:06:24.536Z,61.34
2019-05-12T04:08:54.428Z,61.53
2019-05-12T04:11:19.789Z,61.63
2019-05-12T04:13:46.869Z,61.67
2019-05-12T04:16:16.365Z,61.78
2019-05-12T04:18:45.091Z,61.91
2019-05-12T04:21:15.257Z,61.95
2019-05-12T04:23:44.197Z,61.99
2019-05-12T04:26:13.387Z,62.11
2019-05-12T04:28:38.868Z,62.12
2019-05-12T04:31:05.978Z,62.20
2019-05-12T04:33:34.684Z,62.30
2019-05-12T04:36:05.537Z,62.29
2019-05-12T04:38:35.524Z,62.23
2019-05-12T04:41:01.699Z,62.19
2019-05-12T04:43:28.784Z,62.10
2019-05-12T04:45:55.868Z,62.07
2019-05-12T04:48:25.847Z,62.08
2019-05-12T04:50:54.839Z,62.05
2019-05-12T04:53:20.939Z,62.11
2019-05-12T04:56:06.000Z,62.17
2019-05-12T04:58:17.011Z,62.54
2019-05-12T05:00:44.764Z,63.17
2019-05-12T05:03:14.220Z,63.28
2019-05-12T05:05:43.774Z,63.41
2019-05-12T05:08:10.058Z,63.67
2019-05-12T05:10:37.163Z,63.95
2019-05-12T05:13:05.522Z,64.27
2019-05-12T05:15:34.730Z,64.57
2019-05-12T05:18:06.044Z,64.57
2019-05-12T05:20:30.802Z,64.66
2019-05-12T05:22:57.890Z,64.66
2019-05-12T05:25:24.974Z,64.65
2019-05-12T05:27:53.279Z,64.67
2019-05-12T05:30:20.562Z,64.66
2019-05-12T05:32:47.653Z,64.61
2019-05-12T05:35:14.751Z,64.64
2019-05-12T05:37:44.251Z,64.64
2019-05-12T05:40:13.891Z,64.77
2019-05-12T05:42:40.300Z,64.89
2019-05-12T05:45:09.996Z,65.41
2019-05-12T05:47:36.963Z,65.65
2019-05-12T05:50:04.843Z,65.74
2019-05-12T05:52:38.377Z,65.99
2019-05-12T05:55:07.164Z,66.18
2019-05-12T05:57:29.972Z,66.83
2019-05-12T05:59:57.099Z,67.30
2019-05-12T06:02:31.416Z,67.67
2019-05-12T06:04:56.192Z,67.68
2019-05-12T06:07:25.524Z,67.85
2019-05-12T06:09:53.564Z,67.93
2019-05-12T06:12:20.214Z,68.60
2019-05-12T06:14:54.331Z,68.93
2019-05-12T06:17:16.306Z,69.00
2019-05-12T06:19:44.519Z,68.87
2019-05-12T06:22:15.344Z,68.85
2019-05-12T06:24:40.626Z,69.04
2019-05-12T06:27:15.156Z,69.04
2019-05-12T06:29:36.698Z,68.96
2019-05-12T06:32:06.252Z,68.88
2019-05-12T06:34:34.312Z,68.81
2019-05-12T06:37:03.068Z,68.79
2019-05-12T06:39:30.465Z,68.91
2019-05-12T06:42:11.548Z,68.88
2019-05-12T06:44:26.583Z,68.92
2019-05-12T06:47:02.250Z,68.88
2019-05-12T06:49:24.741Z,68.83
2019-05-12T06:51:53.671Z,69.08
2019-05-12T06:54:21.045Z,69.22
2019-05-12T06:56:49.970Z,69.51
2019-05-12T06:59:17.170Z,69.67
2019-05-12T07:01:44.941Z,69.95
2019-05-12T07:04:14.165Z,70.09
2019-05-12T07:06:41.258Z,70.05
2019-05-12T07:09:09.927Z,69.95
2019-05-12T07:11:44.702Z,69.85
2019-05-12T07:14:13.069Z,69.74
2019-05-12T07:16:35.374Z,70.06
2019-05-12T07:19:07.644Z,70.21
2019-05-12T07:21:33.527Z,70.81
2019-05-12T07:24:05.936Z,70.83
2019-05-12T07:26:29.366Z,70.84
2019-05-12T07:28:56.470Z,70.80
2019-05-12T07:31:24.089Z,70.80
2019-05-12T07:33:54.051Z,70.89
2019-05-12T07:36:20.755Z,70.92
2019-05-12T07:38:49.034Z,70.76
2019-05-12T07:41:19.178Z,70.47
2019-05-12T07:43:50.656Z,70.29
2019-05-12T07:46:16.700Z,70.31
2019-05-12T07:48:46.546Z,70.39
2019-05-12T07:51:13.786Z,70.37
2019-05-12T07:53:40.911Z,70.22
2019-05-12T07:56:07.988Z,70.13
2019-05-12T07:58:35.068Z,70.37
2019-05-12T08:01:05.001Z,70.57
2019-05-12T08:03:31.136Z,71.06
2019-05-12T08:06:01.666Z,71.37
2019-05-12T08:08:27.182Z,71.57
2019-05-12T08:10:56.067Z,71.68
2019-05-12T08:13:23.888Z,71.61
2019-05-12T08:15:55.597Z,71.64
2019-05-12T08:18:20.034Z,71.67
2019-05-12T08:20:47.123Z,71.96
2019-05-12T08:23:14.419Z,71.94
2019-05-12T08:25:43.660Z,71.83
2019-05-12T08:28:15.478Z,71.64
2019-05-12T08:30:46.393Z,71.50
2019-05-12T08:33:09.992Z,71.28
2019-05-12T08:35:38.461Z,71.01
2019-05-12T08:38:06.007Z,70.52
2019-05-12T08:40:34.131Z,70.35
2019-05-12T08:43:08.186Z,70.45
2019-05-12T08:45:36.475Z,70.51
2019-05-12T08:47:59.341Z,70.74
2019-05-12T08:50:31.532Z,70.85
2019-05-12T08:52:55.389Z,71.11
2019-05-12T08:55:31.188Z,71.20
2019-05-12T08:57:51.623Z,71.31
2019-05-12T09:00:34.216Z,71.33
2019-05-12T09:03:03.435Z,71.22
2019-05-12T09:05:34.510Z,71.03
2019-05-12T09:08:00.154Z,70.70
2019-05-12T09:10:27.218Z,70.43
2019-05-12T09:12:54.294Z,70.40
2019-05-12T09:15:21.369Z,70.32
2019-05-12T09:17:52.537Z,70.24
2019-05-12T09:20:17.449Z,69.94
2019-05-12T09:22:44.517Z,69.84
2019-05-12T09:25:11.587Z,69.18
2019-05-12T09:27:39.443Z,68.72
2019-05-12T09:30:09.714Z,68.18
2019-05-12T09:32:39.214Z,68.22
2019-05-12T09:35:06.134Z,68.37
2019-05-12T09:37:38.789Z,68.26
2019-05-12T09:40:04.729Z,67.32
2019-05-12T09:42:33.401Z,66.68
2019-05-12T09:45:08.085Z,66.62
2019-05-12T09:47:29.800Z,66.42
2019-05-12T09:49:57.035Z,66.19
2019-05-12T09:52:27.180Z,66.08
2019-05-12T09:54:54.300Z,65.22
2019-05-12T09:57:21.372Z,64.63
2019-05-12T09:59:55.482Z,64.97
2019-05-12T10:02:20.695Z,65.31
2019-05-12T10:04:50.226Z,65.52
2019-05-12T10:07:15.414Z,65.86
2019-05-12T10:09:44.044Z,66.18
2019-05-12T10:12:13.580Z,66.36
2019-05-12T10:14:45.953Z,66.55
2019-05-12T10:17:11.541Z,66.47
2019-05-12T10:19:38.630Z,66.13
2019-05-12T10:22:05.704Z,66.06
2019-05-12T10:24:41.039Z,65.68
2019-05-12T10:27:03.814Z,65.51
2019-05-12T10:29:32.319Z,65.52
2019-05-12T10:31:59.621Z,65.27
2019-05-12T10:34:29.317Z,64.88
2019-05-12T10:36:56.798Z,64.62
2019-05-12T10:39:24.544Z,64.25
2019-05-12T10:41:53.921Z,63.76
2019-05-12T10:44:20.834Z,64.00
2019-05-12T10:46:53.770Z,64.17
2019-05-12T10:49:23.186Z,63.81
2019-05-12T10:51:53.798Z,63.89
2019-05-12T10:54:20.587Z,64.00
2019-05-12T10:56:47.664Z,64.12
2019-05-12T10:59:28.961Z,64.04
2019-05-12T11:01:47.116Z,64.17
2019-05-12T11:04:14.340Z,64.23
2019-05-12T11:06:46.876Z,64.40
2019-05-12T11:09:10.471Z,64.49
2019-05-12T11:11:42.286Z,64.84
2019-05-12T11:14:06.514Z,64.06
2019-05-12T11:16:35.048Z,63.24
2019-05-12T11:19:06.448Z,63.26
2019-05-12T11:21:33.675Z,61.20
2019-05-12T11:24:03.739Z,60.33
2019-05-12T11:26:29.935Z,60.67
2019-05-12T11:28:57.006Z,60.76
2019-05-12T11:31:24.425Z,61.47
2019-05-12T11:33:53.941Z,61.45
2019-05-12T11:36:24.101Z,60.28
2019-05-12T11:38:53.353Z,58.84
2019-05-12T11:41:20.628Z,56.81
2019-05-12T11:43:47.704Z,56.81
2019-05-12T11:46:14.781Z,57.25
2019-05-12T11:48:46.301Z,57.39
2019-05-12T11:51:14.409Z,57.47
2019-05-12T11:53:41.608Z,55.61
2019-05-12T11:56:09.351Z,52.52
2019-05-12T11:58:41.221Z,52.38
2019-05-12T12:01:08.366Z,52.61
2019-05-12T12:03:35.643Z,53.66
2019-05-12T12:06:02.714Z,53.86
2019-05-12T12:08:35.702Z,53.60
2019-05-12T12:10:58.767Z,52.48
2019-05-12T12:13:29.956Z,52.49
2019-05-12T12:15:54.811Z,53.45
2019-05-12T12:18:23.543Z,52.13
2019-05-12T12:20:56.662Z,50.76
2019-05-12T12:23:19.839Z,51.22
2019-05-12T12:25:48.722Z,49.80
2019-05-12T12:28:15.970Z,49.52
2019-05-12T12:30:47.361Z,48.94
2019-05-12T12:33:14.131Z,48.51
2019-05-12T12:35:40.991Z,49.19
2019-05-12T12:38:08.093Z,49.33
2019-05-12T12:40:36.367Z,49.35
2019-05-12T12:43:04.054Z,48.65
2019-05-12T12:45:40.222Z,49.37
2019-05-12T12:48:06.271Z,49.25
2019-05-12T12:50:34.197Z,48.78
2019-05-12T12:53:01.538Z,47.56
2019-05-12T12:55:28.604Z,46.22
2019-05-12T12:57:55.671Z,45.59
2019-05-12T13:00:32.042Z,44.89
2019-05-12T13:02:55.555Z,45.14
2019-05-12T13:05:23.986Z,44.97
2019-05-12T13:07:52.987Z,44.55
2019-05-12T13:10:20.053Z,44.83
2019-05-12T13:12:50.308Z,45.61
2019-05-12T13:15:20.973Z,45.11
2019-05-12T13:17:47.372Z,44.92
2019-05-12T13:20:19.027Z,42.95
2019-05-12T13:22:46.121Z,42.40
2019-05-12T13:25:16.098Z,41.23
2019-05-12T13:27:46.246Z,41.89
2019-05-12T13:30:19.887Z,41.33
2019-05-12T13:32:44.209Z,41.99
2019-05-12T13:35:16.540Z,42.42
2019-05-12T13:37:40.729Z,42.02
2019-05-12T13:40:09.832Z,42.17
2019-05-12T13:42:37.477Z,42.59
2019-05-12T13:45:05.202Z,43.18
2019-05-12T13:47:39.660Z,42.95
2019-05-12T13:50:06.349Z,43.08
2019-05-12T13:52:33.436Z,42.69
2019-05-12T13:55:05.482Z,42.85
2019-05-12T13:57:30.587Z,42.84
2019-05-12T14:00:06.735Z,41.99
2019-05-12T14:02:26.626Z,40.63
2019-05-12T14:04:53.717Z,39.90
2019-05-12T14:07:23.689Z,39.21
2019-05-12T14:09:56.628Z,39.64
2019-05-12T14:12:25.548Z,39.00
2019-05-12T14:14:52.612Z,38.89
2019-05-12T14:17:19.743Z,39.30
2019-05-12T14:19:46.840Z,39.38
2019-05-12T14:22:21.241Z,39.14
2019-05-12T14:24:46.649Z,38.38
2019-05-12T14:27:13.223Z,39.08
2019-05-12T14:29:44.080Z,39.28
2019-05-12T14:32:12.185Z,40.09
2019-05-12T14:34:40.320Z,38.99
2019-05-12T14:37:10.376Z,38.43
2019-05-12T14:39:40.144Z,38.46
2019-05-12T14:42:09.055Z,39.12
2019-05-12T14:44:44.014Z,38.76
2019-05-12T14:47:05.173Z,37.27
2019-05-12T14:49:33.318Z,37.58
2019-05-12T14:52:00.511Z,36.76
2019-05-12T14:54:27.596Z,37.75
2019-05-12T14:56:57.662Z,38.26
2019-05-12T14:59:24.300Z,38.54
2019-05-12T15:01:58.976Z,37.57
2019-05-12T15:04:29.692Z,37.77
2019-05-12T15:06:54.400Z,38.13
2019-05-12T15:09:24.051Z,37.88
2019-05-12T15:11:50.509Z,37.55
2019-05-12T15:14:17.595Z,36.98
2019-05-12T15:16:45.078Z,37.46
2019-05-12T15:19:13.901Z,37.79
2019-05-12T15:21:43.524Z,38.12
2019-05-12T15:24:15.251Z,38.63
2019-05-12T15:26:40.949Z,38.26
2019-05-12T15:29:13.645Z,38.42
2019-05-12T15:31:38.122Z,38.57
2019-05-12T15:34:09.055Z,39.79
2019-05-12T15:36:36.158Z,40.77
2019-05-12T15:39:06.911Z,41.76
2019-05-12T15:41:35.886Z,42.68
2019-05-12T15:44:03.327Z,43.35
2019-05-12T15:46:40.937Z,43.80
2019-05-12T15:49:03.988Z,44.14
2019-05-12T15:51:35.061Z,44.37
2019-05-12T15:54:06.278Z,44.45
2019-05-12T15:56:30.916Z,44.46
2019-05-12T15:59:00.805Z,44.63
2019-05-12T16:01:27.024Z,44.94
2019-05-12T16:03:54.383Z,45.10
2019-05-12T16:06:21.619Z,45.32
2019-05-12T16:08:48.856Z,45.55
2019-05-12T16:11:15.935Z,45.72
2019-05-12T16:13:46.946Z,45.95
2019-05-12T16:16:14.288Z,46.06
2019-05-12T16:18:46.688Z,46.16
2019-05-12T16:21:10.366Z,46.26
2019-05-12T16:23:37.439Z,46.41
2019-05-12T16:26:10.338Z,46.37
2019-05-12T16:28:33.810Z,46.52
2019-05-12T16:31:04.966Z,46.67
2019-05-12T16:33:29.922Z,46.72
2019-05-12T16:35:59.963Z,46.79
2019-05-12T16:38:25.988Z,46.78
2019-05-12T16:40:54.025Z,46.80
2019-05-12T16:43:23.627Z,46.84
2019-05-12T16:45:50.480Z,46.78
2019-05-12T16:48:29.450Z,46.71
2019-05-12T16:50:46.532Z,46.69
2019-05-12T16:53:21.517Z,46.87
2019-05-12T16:55:46.457Z,46.94
2019-05-12T16:58:13.449Z,47.15
2019-05-12T17:00:45.131Z,47.74
2019-05-12T17:03:11.344Z,48.86
2019-05-12T17:05:38.417Z,49.78
2019-05-12T17:08:05.527Z,50.85
2019-05-12T17:10:35.483Z,51.69
2019-05-12T17:13:07.385Z,52.44
2019-05-12T17:15:33.709Z,53.49
2019-05-12T17:18:01.759Z,54.48
2019-05-12T17:20:33.038Z,55.77
2019-05-12T17:23:00.581Z,56.37
2019-05-12T17:25:27.792Z,57.04
2019-05-12T17:27:58.167Z,57.40
2019-05-12T17:30:24.068Z,57.27
2019-05-12T17:32:57.947Z,57.70
2019-05-12T17:35:25.314Z,58.24
2019-05-12T17:37:49.131Z,58.69
2019-05-12T17:40:20.145Z,58.92
2019-05-12T17:42:45.418Z,59.61
2019-05-12T17:45:18.000Z,59.90
2019-05-12T17:47:44.137Z,61.14
2019-05-12T17:50:10.803Z,61.71
2019-05-12T17:52:37.890Z,61.93
2019-05-12T17:55:10.726Z,61.52
2019-05-12T17:57:34.089Z,61.15
2019-05-12T18:00:06.210Z,60.76
2019-05-12T18:02:30.062Z,60.48
2019-05-12T18:05:01.118Z,60.32
2019-05-12T18:07:26.135Z,60.15
2019-05-12T18:09:56.723Z,60.04
2019-05-12T18:12:26.757Z,60.01
2019-05-12T18:14:52.237Z,59.94
2019-05-12T18:17:19.574Z,60.00
2019-05-12T18:19:50.336Z,59.83
2019-05-12T18:22:15.615Z,59.74
2019-05-12T18:24:49.322Z,59.74
2019-05-12T18:27:13.802Z,59.80
2019-05-12T18:29:40.963Z,59.96
2019-05-12T18:32:10.680Z,60.15
2019-05-12T18:34:37.751Z,60.10
2019-05-12T18:37:06.031Z,60.10
2019-05-12T18:39:34.395Z,60.32
2019-05-12T18:42:03.537Z,60.44
2019-05-12T18:44:31.579Z,60.66
2019-05-12T18:46:58.946Z,60.83
2019-05-12T18:49:26.037Z,61.05
2019-05-12T18:51:55.287Z,61.14
2019-05-12T18:54:24.321Z,61.23
2019-05-12T18:56:52.384Z,61.17
2019-05-12T18:59:23.297Z,61.14
2019-05-12T19:01:54.126Z,61.21
2019-05-12T19:04:21.523Z,61.32
2019-05-12T19:06:48.623Z,61.45
2019-05-12T19:09:15.708Z,61.58
2019-05-12T19:11:46.404Z,61.68
2019-05-12T19:14:13.471Z,61.89
2019-05-12T19:16:43.240Z,62.03
2019-05-12T19:19:15.334Z,62.04
2019-05-12T19:21:40.025Z,62.10
2019-05-12T19:24:08.698Z,62.26
2019-05-12T19:26:38.490Z,62.14
2019-05-12T19:29:05.093Z,62.21
2019-05-12T19:31:33.363Z,62.26
2019-05-12T19:34:15.768Z,62.24
2019-05-12T19:36:30.158Z,62.30
2019-05-12T19:38:57.270Z,62.38
2019-05-12T19:41:24.665Z,62.16
2019-05-12T19:43:53.662Z,62.13
2019-05-12T19:46:20.806Z,62.20
2019-05-12T19:48:50.921Z,62.17
2019-05-12T19:51:24.596Z,62.23
2019-05-12T19:53:48.211Z,62.32
2019-05-12T19:56:18.881Z,62.38
2019-05-12T19:58:47.153Z,62.37
2019-05-12T20:01:17.191Z,62.44
2019-05-12T20:03:44.287Z,62.36
2019-05-12T20:06:13.394Z,62.21
2019-05-12T20:08:40.368Z,62.26
2019-05-12T20:11:07.452Z,62.33
2019-05-12T20:13:36.060Z,62.51
2019-05-12T20:16:03.534Z,62.41
2019-05-12T20:18:36.145Z,62.27
2019-05-12T20:21:01.333Z,62.12
2019-05-12T20:23:28.407Z,62.12
2019-05-12T20:25:57.355Z,62.10
2019-05-12T20:28:24.759Z,62.13
2019-05-12T20:31:00.531Z,62.11
2019-05-12T20:33:20.834Z,61.92
2019-05-12T20:35:49.329Z,61.79
2019-05-12T20:38:16.620Z,61.85
2019-05-12T20:40:43.710Z,61.82
2019-05-12T20:43:12.241Z,61.75
2019-05-12T20:45:40.778Z,61.63
2019-05-12T20:48:08.786Z,61.50
2019-05-12T20:50:38.894Z,61.44
2019-05-12T20:53:05.978Z,61.41
2019-05-12T20:55:36.609Z,61.34
2019-05-12T20:58:04.065Z,61.39
2019-05-12T21:00:31.048Z,61.47
2019-05-12T21:02:58.132Z,61.59
2019-05-12T21:05:25.212Z,61.65
2019-05-12T21:07:55.632Z,61.64
2019-05-12T21:10:26.407Z,61.64
2019-05-12T21:12:50.474Z,61.59
2019-05-12T21:15:20.717Z,61.44
2019-05-12T21:17:58.464Z,61.35
2019-05-12T21:20:17.083Z,61.29
2019-05-12T21:22:44.303Z,61.28
2019-05-12T21:25:12.833Z,61.25
2019-05-12T21:27:46.664Z,61.39
2019-05-12T21:30:12.529Z,61.39
2019-05-12T21:32:40.179Z,61.39
2019-05-12T21:35:18.207Z,61.40
2019-05-12T21:37:45.196Z,61.35
2019-05-12T21:40:06.187Z,61.31
2019-05-12T21:42:33.929Z,61.23
2019-05-12T21:45:01.124Z,61.26
2019-05-12T21:47:28.204Z,61.20
2019-05-12T21:49:57.912Z,61.19
2019-05-12T21:52:24.427Z,61.19
2019-05-12T21:54:51.512Z,61.21
2019-05-12T21:57:19.152Z,61.25
2019-05-12T21:59:48.737Z,61.33
2019-05-12T22:02:19.687Z,61.34
2019-05-12T22:07:23.877Z,61.75
2019-05-12T22:09:51.068Z,61.78
2019-05-12T22:12:18.151Z,61.87
2019-05-12T22:14:46.216Z,61.88
2019-05-12T22:17:13.756Z,61.99
2019-05-12T22:19:40.922Z,62.03
2019-05-12T22:22:08.011Z,62.03
2019-05-12T22:24:38.734Z,62.21
2019-05-12T22:27:05.335Z,62.25
2019-05-12T22:29:34.314Z,62.28
2019-05-12T22:32:01.546Z,62.36
2019-05-12T22:34:37.213Z,62.33
2019-05-12T22:36:59.157Z,62.47
2019-05-12T22:39:26.599Z,62.45
2019-05-12T22:41:53.706Z,62.53
2019-05-12T22:44:24.542Z,62.58
2019-05-12T22:46:49.874Z,62.53
2019-05-12T22:49:21.126Z,62.50
2019-05-12T22:51:54.581Z,62.59
2019-05-12T22:54:18.531Z,62.71
2019-05-12T22:56:49.591Z,62.82
2019-05-12T22:59:14.633Z,62.94
2019-05-12T23:01:44.562Z,63.08
2019-05-12T23:04:10.694Z,63.42
2019-05-12T23:06:42.022Z,63.46
2019-05-12T23:09:06.779Z,63.74
2019-05-12T23:11:37.822Z,63.99
2019-05-12T23:14:04.024Z,64.31
2019-05-12T23:16:33.476Z,64.22
2019-05-12T23:19:01.394Z,64.06
2019-05-12T23:21:29.167Z,63.88
2019-05-12T23:24:00.482Z,63.62
2019-05-12T23:26:25.619Z,63.46
2019-05-12T23:28:53.466Z,63.33
2019-05-12T23:31:26.134Z,63.26
2019-05-12T23:33:49.666Z,63.24
2019-05-12T23:36:19.634Z,63.25
2019-05-12T23:38:45.711Z,63.31
2019-05-12T23:41:13.598Z,63.36
2019-05-12T23:43:40.793Z,63.44
2019-05-12T23:46:07.880Z,63.50
2019-05-12T23:48:34.951Z,63.61
2019-05-12T23:51:03.841Z,63.74
2019-05-12T23:53:31.031Z,63.76
2019-05-12T23:55:59.992Z,63.79
2019-05-12T23:58:27.103Z,63.88
